Itabi, Brazil
Current Conditions -  °F | °C
As of 5:00 PM on Wednesday 26 Nov 2014 (Local Time) from SBAR Reporting Station
Scattered Clouds Scattered Clouds  
Wind Chill: 81°   Ceiling: Unl
Heat Index: 83°   Visibility: 6mi
Dew Point: 68°   Wind: 16mph
Humidity: 65%   Direction: 110°ESE
Pressure: 29.91"   Gusts: NA
Location:  10.12°S, 37.11°W
Report Text: SBAR 262000Z 11014KT 9999 SCT018 27/20 Q1013
Loading
Personal Weather Stations






























Interactive Weather Map New forecast layout! Learn more

10-Day Weather Forecast

Advertisements
Track Severe Weather on mobile